Time;durP1;ratioP1;P1;durP2;ratioP2;P2;SDS_P1;SDS_P2;PMS_P1;PMS_P2;Temp;Humidity;BMP_temperature;BMP_pressure;BME280_temperature;BME280_humidity;BME280_pressure;Samples;Min_cycle;Max_cycle;Signal;HPM_P1;HPM_P2
2022/11/01 00:00:14;;;;;;;8.80;4.57;;;14.90;99.90;;;;;;4975538;28;20469;-81
2022/11/01 00:02:43;;;;;;;8.52;4.65;;;14.90;99.90;;;;;;5004492;28;20109;-81
2022/11/01 00:05:12;;;;;;;9.90;4.63;;;14.90;99.90;;;;;;4999148;28;20447;-81
2022/11/01 00:07:38;;;;;;;9.93;5.07;;;15.00;99.90;;;;;;5007109;28;20024;-80
2022/11/01 00:10:08;;;;;;;9.27;4.30;;;15.00;99.90;;;;;;4982237;28;20037;-81
2022/11/01 00:12:45;;;;;;;9.25;4.65;;;15.10;99.90;;;;;;4983581;28;20081;-81
2022/11/01 00:15:19;;;;;;;8.95;4.60;;;15.30;99.90;;;;;;4964828;28;20037;-80
2022/11/01 00:17:49;;;;;;;7.28;4.65;;;15.40;99.90;;;;;;4982321;28;20030;-82
2022/11/01 00:20:16;;;;;;;8.50;4.50;;;15.50;99.90;;;;;;4970398;28;20031;-82
2022/11/01 00:22:42;;;;;;;7.95;5.05;;;15.60;99.90;;;;;;4970239;28;20022;-82
2022/11/01 00:25:17;;;;;;;9.40;5.72;;;15.60;99.90;;;;;;4979681;28;20030;-81
2022/11/01 00:27:49;;;;;;;9.95;4.90;;;15.60;99.90;;;;;;4979648;28;20034;-81
2022/11/01 00:30:22;;;;;;;8.00;4.40;;;15.50;99.90;;;;;;4944973;28;20454;-82
2022/11/01 00:32:51;;;;;;;8.40;4.75;;;15.40;99.90;;;;;;4961156;28;20027;-82
2022/11/01 00:35:20;;;;;;;10.02;5.40;;;15.40;99.90;;;;;;4963863;28;20026;-81
2022/11/01 00:37:51;;;;;;;10.73;5.40;;;15.40;99.90;;;;;;4971663;28;20550;-82
2022/11/01 00:40:18;;;;;;;9.13;4.95;;;15.30;99.90;;;;;;4979619;28;20021;-82
2022/11/01 00:45:44;;;;;;;8.40;5.05;;;15.30;99.90;;;;;;5064596;27;1569587;-80
2022/11/01 00:48:13;;;;;;;9.10;4.80;;;15.20;99.90;;;;;;5086632;28;20020;-82
2022/11/01 00:50:42;;;;;;;9.77;4.90;;;15.30;99.90;;;;;;5078422;28;20020;-81
2022/11/01 00:53:13;;;;;;;11.25;5.22;;;15.30;99.90;;;;;;5095766;28;20016;-81
2022/11/01 00:55:40;;;;;;;8.93;4.60;;;15.30;99.90;;;;;;5067754;28;20031;-81
2022/11/01 00:58:07;;;;;;;9.82;5.07;;;15.30;99.90;;;;;;5071176;28;20073;-82
2022/11/01 01:00:35;;;;;;;8.23;4.70;;;15.30;99.90;;;;;;5082627;28;20055;-81
2022/11/01 01:03:09;;;;;;;11.65;5.05;;;15.30;99.90;;;;;;5104759;28;20436;-81
2022/11/01 01:05:43;;;;;;;10.27;4.97;;;15.40;99.90;;;;;;5074965;28;20056;-81
2022/11/01 01:08:09;;;;;;;8.68;4.93;;;15.40;99.90;;;;;;5078928;28;20028;-81
2022/11/01 01:10:35;;;;;;;10.35;4.18;;;15.60;99.90;;;;;;5082033;28;20146;-80
2022/11/01 01:13:09;;;;;;;11.55;4.95;;;15.70;99.90;;;;;;5105550;28;20055;-81
2022/11/01 01:15:37;;;;;;;7.82;4.53;;;15.80;99.90;;;;;;5088237;28;20036;-80
2022/11/01 01:18:05;;;;;;;7.90;4.30;;;15.80;99.90;;;;;;5111059;28;20021;-80
2022/11/01 01:20:33;;;;;;;9.63;4.65;;;15.90;99.90;;;;;;5083022;28;20040;-82
2022/11/01 01:23:04;;;;;;;7.05;4.40;;;15.90;99.90;;;;;;5073934;28;20055;-81
2022/11/01 01:25:30;;;;;;;10.38;4.63;;;16.00;99.90;;;;;;5096375;28;20036;-82
2022/11/01 01:28:01;;;;;;;10.55;4.93;;;16.00;99.90;;;;;;5072971;28;20020;-80
2022/11/01 01:30:40;;;;;;;11.43;5.38;;;16.10;99.90;;;;;;5072795;28;20029;-81
2022/11/01 01:33:12;;;;;;;6.57;4.18;;;16.10;99.90;;;;;;5102157;28;20049;-81
2022/11/01 01:35:43;;;;;;;8.18;4.10;;;16.10;99.90;;;;;;5092712;28;20448;-82
2022/11/01 01:38:18;;;;;;;7.53;4.18;;;16.10;99.90;;;;;;5079615;28;20560;-82
2022/11/01 01:40:43;;;;;;;8.93;4.68;;;16.10;99.90;;;;;;5079606;28;20414;-81
2022/11/01 01:43:12;;;;;;;9.82;4.38;;;16.10;99.90;;;;;;5078501;28;20024;-83
2022/11/01 01:45:39;;;;;;;8.70;4.40;;;16.10;99.90;;;;;;5076405;28;20056;-80
2022/11/01 01:48:25;;;;;;;9.32;4.35;;;16.10;99.90;;;;;;5074151;28;20060;-81
2022/11/01 01:51:01;;;;;;;8.95;4.00;;;16.20;99.90;;;;;;5069394;28;20021;-81
2022/11/01 01:53:38;;;;;;;12.40;4.75;;;16.20;99.90;;;;;;5070032;28;20029;-81
2022/11/01 01:56:19;;;;;;;7.35;4.15;;;16.20;99.90;;;;;;5066124;28;20099;-81
2022/11/01 01:59:15;;;;;;;11.40;3.80;;;16.10;99.90;;;;;;5065975;28;20107;-81
2022/11/01 02:01:41;;;;;;;11.68;5.32;;;16.20;99.90;;;;;;5052365;28;20037;-81
2022/11/01 02:04:27;;;;;;;7.85;5.18;;;16.10;99.90;;;;;;5055238;28;20453;-82
2022/11/01 02:06:53;;;;;;;8.48;4.20;;;16.20;99.90;;;;;;5063952;28;20029;-81
2022/11/01 02:09:20;;;;;;;8.65;4.80;;;16.10;99.90;;;;;;5056344;28;20461;-81
2022/11/01 02:11:45;;;;;;;7.22;4.05;;;16.10;99.90;;;;;;5055871;28;20090;-81
2022/11/01 02:14:13;;;;;;;8.00;4.28;;;16.10;99.90;;;;;;5058524;28;20021;-80
2022/11/01 02:16:57;;;;;;;10.02;5.00;;;16.10;99.90;;;;;;5054417;28;20354;-80
2022/11/01 02:19:42;;;;;;;8.95;4.63;;;16.20;99.90;;;;;;5054474;28;20025;-80
2022/11/01 02:22:17;;;;;;;8.68;4.78;;;16.10;99.90;;;;;;5067583;28;20075;-81
2022/11/01 02:25:01;;;;;;;7.35;4.78;;;16.10;99.90;;;;;;5055701;28;20040;-81
2022/11/01 02:27:50;;;;;;;9.80;4.00;;;16.10;99.90;;;;;;5055373;28;20033;-81
2022/11/01 02:30:57;;;;;;;8.70;4.72;;;16.10;99.90;;;;;;5056777;28;20033;-81
2022/11/01 02:33:45;;;;;;;6.78;3.80;;;16.10;99.90;;;;;;5050056;28;20033;-82
2022/11/01 02:36:28;;;;;;;7.57;4.45;;;16.20;99.90;;;;;;5064374;28;20016;-82
2022/11/01 02:39:10;;;;;;;8.95;4.47;;;16.20;99.90;;;;;;5068234;28;20017;-81
2022/11/01 02:41:43;;;;;;;9.35;4.32;;;16.20;99.90;;;;;;5055212;28;20033;-81
2022/11/01 02:44:15;;;;;;;8.88;4.88;;;16.30;99.90;;;;;;5062104;28;20480;-81
2022/11/01 02:47:02;;;;;;;9.88;4.75;;;16.30;99.90;;;;;;5067208;28;20024;-81
2022/11/01 02:49:36;;;;;;;8.10;4.78;;;16.30;99.90;;;;;;5063533;28;20020;-82
2022/11/01 02:52:04;;;;;;;7.07;4.15;;;16.40;99.90;;;;;;5076685;28;20027;-80
2022/11/01 02:54:38;;;;;;;8.80;4.28;;;16.40;99.90;;;;;;5064070;28;20107;-81
2022/11/01 02:57:35;;;;;;;7.25;4.03;;;16.40;99.90;;;;;;5062185;28;20090;-80
2022/11/01 03:00:23;;;;;;;8.75;4.20;;;16.40;99.90;;;;;;5069467;28;20114;-80
2022/11/01 03:02:59;;;;;;;7.30;3.97;;;16.40;99.90;;;;;;5068264;28;20079;-79
2022/11/01 03:05:37;;;;;;;7.05;3.70;;;16.40;99.90;;;;;;5061049;28;20486;-80
2022/11/01 03:08:07;;;;;;;5.60;3.53;;;16.40;99.90;;;;;;5092096;28;20048;-80
2022/11/01 03:10:53;;;;;;;5.00;3.40;;;16.40;99.90;;;;;;5092605;28;20031;-81
2022/11/01 03:13:36;;;;;;;7.72;4.03;;;16.50;99.90;;;;;;5059831;28;20032;-82
2022/11/01 03:16:30;;;;;;;9.20;3.97;;;16.50;99.90;;;;;;5058741;28;20453;-80
2022/11/01 03:19:03;;;;;;;6.85;3.67;;;16.50;99.90;;;;;;5076211;28;20035;-80
2022/11/01 03:21:38;;;;;;;7.68;4.10;;;16.50;99.90;;;;;;5072725;28;20026;-80
2022/11/01 03:24:32;;;;;;;7.00;3.97;;;16.50;99.90;;;;;;5086275;28;20031;-81
2022/11/01 03:27:14;;;;;;;7.03;3.60;;;16.60;99.90;;;;;;5020219;28;20434;-80
2022/11/01 03:29:46;;;;;;;6.85;4.05;;;16.60;99.90;;;;;;5057661;28;20021;-80
2022/11/01 03:32:21;;;;;;;7.07;3.75;;;16.50;99.90;;;;;;5067151;28;20024;-81
2022/11/01 03:34:52;;;;;;;6.97;3.65;;;16.60;99.90;;;;;;5062041;28;20032;-82
2022/11/01 03:37:31;;;;;;;8.95;3.63;;;16.60;99.90;;;;;;5073015;28;20028;-81
2022/11/01 03:40:03;;;;;;;5.70;3.42;;;16.60;99.90;;;;;;5077608;28;20371;-82
2022/11/01 03:42:33;;;;;;;5.35;3.30;;;16.60;99.90;;;;;;5080696;28;20029;-82
2022/11/01 03:45:08;;;;;;;7.78;3.83;;;16.60;99.90;;;;;;5071836;28;20117;-81
2022/11/01 03:47:36;;;;;;;7.47;3.65;;;16.60;99.90;;;;;;5071100;28;20179;-82
2022/11/01 03:50:20;;;;;;;7.05;3.80;;;16.60;99.90;;;;;;5063265;28;20457;-81
2022/11/01 03:52:46;;;;;;;8.43;3.42;;;16.60;99.90;;;;;;5053060;28;20484;-81
2022/11/01 03:55:17;;;;;;;7.85;3.65;;;16.50;99.90;;;;;;5064367;28;20606;-81
2022/11/01 03:57:58;;;;;;;5.80;3.67;;;16.60;99.90;;;;;;5065456;28;20028;-82
2022/11/01 04:00:36;;;;;;;5.53;3.20;;;16.60;99.90;;;;;;5065023;28;20479;-81
2022/11/01 04:03:02;;;;;;;6.82;3.35;;;16.60;99.90;;;;;;5045205;28;20107;-82
2022/11/01 04:05:32;;;;;;;6.68;3.22;;;16.60;99.90;;;;;;5058654;28;20116;-82
2022/11/01 04:07:59;;;;;;;9.23;3.80;;;16.60;99.90;;;;;;5063508;28;20476;-81
2022/11/01 04:10:27;;;;;;;5.85;3.53;;;16.60;99.90;;;;;;5056094;28;20551;-81
2022/11/01 04:12:54;;;;;;;6.55;3.92;;;16.60;99.90;;;;;;5072407;28;20021;-82
2022/11/01 04:21:05;;;;;;;5.85;3.20;;;16.60;99.90;;;;;;5065671;28;20070;-82
2022/11/01 04:23:33;;;;;;;6.15;2.75;;;16.60;99.90;;;;;;5065998;28;20029;-82
2022/11/01 04:26:00;;;;;;;6.45;3.03;;;16.60;99.90;;;;;;5053670;28;20033;-83
2022/11/01 04:28:28;;;;;;;8.18;2.85;;;16.60;99.90;;;;;;5064800;28;20388;-82
2022/11/01 04:30:59;;;;;;;5.43;2.53;;;16.50;99.90;;;;;;5052024;28;20047;-82
2022/11/01 04:33:35;;;;;;;5.45;2.42;;;16.50;99.90;;;;;;5052045;28;20474;-81
2022/11/01 04:36:07;;;;;;;3.92;2.03;;;16.50;99.90;;;;;;5052012;28;20086;-81
2022/11/01 04:38:39;;;;;;;3.67;1.90;;;16.40;99.90;;;;;;5060085;28;20028;-81
2022/11/01 04:41:10;;;;;;;5.07;2.20;;;16.30;99.90;;;;;;5070566;28;20017;-81
2022/11/01 04:43:40;;;;;;;3.03;1.70;;;16.20;99.90;;;;;;5070928;28;20021;-81
2022/11/01 04:46:09;;;;;;;4.13;1.38;;;16.10;99.90;;;;;;5046587;28;20037;-81
2022/11/01 04:48:35;;;;;;;3.85;1.60;;;16.10;99.90;;;;;;5032016;28;20029;-81
2022/11/01 04:51:03;;;;;;;2.58;1.27;;;16.00;99.90;;;;;;5046076;28;20021;-81
2022/11/01 04:53:38;;;;;;;2.67;1.42;;;15.90;99.90;;;;;;5026538;28;20039;-80
2022/11/01 04:56:12;;;;;;;2.80;1.45;;;15.80;99.90;;;;;;5046436;28;20127;-81
2022/11/01 04:58:37;;;;;;;2.83;1.20;;;15.70;99.90;;;;;;5045866;28;20086;-80
2022/11/01 05:01:10;;;;;;;2.90;1.25;;;15.60;99.90;;;;;;5051715;28;20044;-80
2022/11/01 05:03:35;;;;;;;2.35;0.80;;;15.50;99.90;;;;;;5041354;28;20041;-82
2022/11/01 05:06:01;;;;;;;2.78;0.85;;;15.40;99.90;;;;;;5049915;28;20017;-82
2022/11/01 05:08:27;;;;;;;1.33;0.60;;;15.40;99.90;;;;;;5048114;28;20029;-81
2022/11/01 05:10:54;;;;;;;2.45;0.60;;;15.30;99.90;;;;;;5049592;28;20519;-81
2022/11/01 05:13:26;;;;;;;3.55;0.80;;;15.30;99.90;;;;;;5047058;28;20464;-82
2022/11/01 05:15:57;;;;;;;1.60;0.50;;;15.20;99.90;;;;;;5049730;28;20037;-82
2022/11/01 05:18:29;;;;;;;1.45;0.70;;;15.20;99.90;;;;;;5033827;28;20124;-82
2022/11/01 05:21:00;;;;;;;2.67;0.60;;;15.10;99.90;;;;;;5033983;28;20030;-81
2022/11/01 05:23:29;;;;;;;4.60;0.70;;;15.10;99.90;;;;;;5032850;28;20034;-82
2022/11/01 05:25:58;;;;;;;1.40;0.55;;;15.00;99.90;;;;;;5044025;28;20032;-80
2022/11/01 05:28:30;;;;;;;3.45;0.60;;;14.90;99.90;;;;;;5033703;28;20030;-81
2022/11/01 05:31:03;;;;;;;1.92;0.43;;;14.90;99.90;;;;;;5064106;28;20035;-81
2022/11/01 05:33:37;;;;;;;2.08;0.50;;;14.80;99.90;;;;;;5042952;28;20036;-80
2022/11/01 05:36:12;;;;;;;2.13;0.60;;;14.80;99.90;;;;;;5056031;28;20032;-80
2022/11/01 05:38:41;;;;;;;1.77;0.45;;;14.70;99.90;;;;;;5047177;28;20177;-81
2022/11/01 05:41:13;;;;;;;2.63;0.50;;;14.70;99.90;;;;;;5054590;28;20036;-82
2022/11/01 05:43:42;;;;;;;1.08;0.50;;;14.60;99.90;;;;;;5056818;28;20033;-80
2022/11/01 05:46:14;;;;;;;2.58;0.70;;;14.60;99.90;;;;;;5061718;28;20599;-81
2022/11/01 05:48:44;;;;;;;2.90;0.63;;;14.70;99.90;;;;;;5063639;28;20106;-82
2022/11/01 05:51:16;;;;;;;3.10;0.60;;;14.70;99.90;;;;;;5070526;28;20283;-82
2022/11/01 05:53:52;;;;;;;4.40;0.68;;;14.80;99.90;;;;;;5063471;28;20033;-81
2022/11/01 05:56:21;;;;;;;3.65;0.55;;;14.80;99.90;;;;;;5072173;28;20031;-81
2022/11/01 05:58:50;;;;;;;6.53;0.95;;;14.70;99.90;;;;;;5055770;28;20028;-81
2022/11/01 06:01:16;;;;;;;3.58;0.70;;;14.70;99.90;;;;;;5055291;28;20365;-80
2022/11/01 06:03:52;;;;;;;3.55;0.75;;;14.70;99.90;;;;;;5056053;28;20044;-80
2022/11/01 06:06:18;;;;;;;1.75;0.50;;;14.60;99.90;;;;;;5049453;28;20112;-80
2022/11/01 06:08:44;;;;;;;2.63;0.73;;;14.60;99.90;;;;;;5055019;28;20059;-80
2022/11/01 06:11:11;;;;;;;1.98;0.50;;;14.50;99.90;;;;;;5064067;28;20048;-80
2022/11/01 06:13:37;;;;;;;4.88;0.85;;;14.40;99.90;;;;;;5058145;28;20013;-81
2022/11/01 06:16:06;;;;;;;4.53;0.73;;;14.40;99.90;;;;;;5073909;28;20483;-81
2022/11/01 06:18:35;;;;;;;4.15;1.05;;;14.40;99.90;;;;;;5069857;28;20457;-82
2022/11/01 06:21:02;;;;;;;4.63;0.85;;;14.30;99.90;;;;;;5054497;28;20465;-81
2022/11/01 06:23:28;;;;;;;3.40;0.80;;;14.30;99.90;;;;;;5055417;28;20032;-81
2022/11/01 06:26:07;;;;;;;2.10;0.75;;;14.20;99.90;;;;;;5063165;28;20072;-81
2022/11/01 06:28:36;;;;;;;3.42;0.55;;;14.20;99.90;;;;;;5074100;28;20029;-82
2022/11/01 06:31:06;;;;;;;3.53;0.95;;;14.10;99.90;;;;;;5056809;28;20027;-82
2022/11/01 06:33:32;;;;;;;3.53;0.63;;;14.10;99.90;;;;;;5073479;28;20032;-81
2022/11/01 06:36:10;;;;;;;2.65;0.70;;;14.00;99.90;;;;;;5074002;28;20017;-82
2022/11/01 06:38:40;;;;;;;3.47;0.80;;;14.10;99.90;;;;;;5065523;28;20033;-83
2022/11/01 06:41:08;;;;;;;4.10;0.60;;;14.10;99.90;;;;;;5055950;28;20044;-82
2022/11/01 06:43:38;;;;;;;5.35;0.63;;;14.10;99.90;;;;;;5064386;28;20032;-82
2022/11/01 06:46:19;;;;;;;2.67;0.73;;;14.20;99.90;;;;;;5072880;28;20044;-83
2022/11/01 06:48:47;;;;;;;3.28;0.65;;;14.00;99.90;;;;;;5060747;28;20469;-82
2022/11/01 06:51:16;;;;;;;2.95;0.80;;;14.00;99.90;;;;;;5068777;28;20032;-81
2022/11/01 06:53:55;;;;;;;3.65;0.93;;;13.90;99.90;;;;;;5070053;28;20065;-80
2022/11/01 06:56:25;;;;;;;5.57;0.82;;;13.80;99.90;;;;;;5073375;28;20055;-81
2022/11/01 06:59:09;;;;;;;;;;;;;;;;;;;;;
2022/11/01 07:01:42;;;;;;;4.68;0.80;;;13.80;99.90;;;;;;5076789;28;20119;-83
2022/11/01 07:04:12;;;;;;;5.00;1.00;;;13.70;99.90;;;;;;5066789;28;20033;-82
2022/11/01 07:06:42;;;;;;;4.78;0.60;;;13.70;99.90;;;;;;5055474;28;20124;-81
2022/11/01 07:09:17;;;;;;;6.15;0.95;;;13.70;99.90;;;;;;5064742;28;20025;-81
2022/11/01 07:11:49;;;;;;;6.43;0.73;;;13.70;99.90;;;;;;5051720;28;20025;-83
2022/11/01 07:14:23;;;;;;;3.93;0.70;;;13.80;99.90;;;;;;5054128;28;20372;-83
2022/11/01 07:16:56;;;;;;;4.93;0.90;;;13.80;99.90;;;;;;5054668;28;20021;-82
2022/11/01 07:19:24;;;;;;;7.18;1.00;;;13.80;99.90;;;;;;5054931;28;20087;-82
2022/11/01 07:21:54;;;;;;;4.80;0.68;;;13.80;99.90;;;;;;5058723;28;20367;-83
2022/11/01 07:24:20;;;;;;;6.20;1.17;;;13.80;99.90;;;;;;5061763;28;20036;-83
2022/11/01 07:26:47;;;;;;;6.57;1.20;;;13.80;99.90;;;;;;5053329;28;20025;-83
2022/11/01 07:29:19;;;;;;;5.07;0.82;;;13.80;99.90;;;;;;5053039;28;20104;-82
2022/11/01 07:31:57;;;;;;;2.90;0.68;;;13.80;99.90;;;;;;5059043;28;20066;-82
2022/11/01 07:34:23;;;;;;;2.20;0.70;;;13.80;99.90;;;;;;5060384;28;20066;-82
2022/11/01 07:36:53;;;;;;;7.70;0.98;;;13.80;99.90;;;;;;5053204;28;20033;-83
2022/11/01 07:39:19;;;;;;;6.35;1.20;;;13.80;99.90;;;;;;5052942;28;20032;-82
2022/11/01 07:41:53;;;;;;;4.72;1.00;;;13.80;99.90;;;;;;5056407;28;20476;-83
2022/11/01 07:44:23;;;;;;;7.18;1.10;;;13.80;99.90;;;;;;5060173;28;20057;-82
2022/11/01 07:46:51;;;;;;;3.97;1.00;;;13.80;99.90;;;;;;5069984;28;20024;-83
2022/11/01 07:49:28;;;;;;;3.65;0.85;;;13.90;99.90;;;;;;5064302;28;20420;-82
2022/11/01 07:51:57;;;;;;;3.75;0.90;;;13.80;99.90;;;;;;5067824;28;20028;-82
2022/11/01 07:54:24;;;;;;;7.03;1.00;;;13.90;99.90;;;;;;5060315;28;20021;-82
2022/11/01 07:56:51;;;;;;;6.43;1.63;;;13.90;99.90;;;;;;5062192;28;20035;-83
2022/11/01 07:59:17;;;;;;;6.07;1.10;;;13.90;99.90;;;;;;5059725;28;20185;-82
2022/11/01 08:01:43;;;;;;;3.80;1.27;;;14.00;99.90;;;;;;5065134;28;20029;-83
2022/11/01 08:04:09;;;;;;;6.28;1.20;;;14.00;99.90;;;;;;5079372;28;20044;-84
2022/11/01 08:06:35;;;;;;;9.63;1.50;;;14.10;99.90;;;;;;5065233;28;20104;-81
2022/11/01 08:09:01;;;;;;;9.13;1.50;;;14.10;99.90;;;;;;5055984;28;20041;-81
2022/11/01 08:11:28;;;;;;;5.03;1.02;;;14.20;99.90;;;;;;5051600;28;20025;-81
2022/11/01 08:13:55;;;;;;;6.75;1.27;;;14.20;99.90;;;;;;5063661;28;20431;-81
2022/11/01 08:16:22;;;;;;;8.55;1.30;;;14.20;99.90;;;;;;5064619;28;20103;-83
2022/11/01 08:18:50;;;;;;;12.63;1.17;;;14.20;99.90;;;;;;5054655;28;20127;-82
2022/11/01 08:21:18;;;;;;;4.82;0.90;;;14.30;99.90;;;;;;5064838;28;20131;-81
2022/11/01 08:23:45;;;;;;;5.90;1.60;;;14.30;99.90;;;;;;5054153;28;20028;-82
2022/11/01 08:26:11;;;;;;;4.60;0.90;;;14.40;99.90;;;;;;5053667;28;20028;-82
2022/11/01 08:28:37;;;;;;;6.00;1.08;;;14.40;99.90;;;;;;5068671;28;20128;-82
2022/11/01 08:31:08;;;;;;;7.22;1.35;;;14.40;99.90;;;;;;5069327;28;20029;-83
2022/11/01 08:33:34;;;;;;;6.85;1.00;;;14.50;99.90;;;;;;5064421;28;20032;-82
2022/11/01 08:36:00;;;;;;;6.25;1.08;;;14.60;99.90;;;;;;5063685;28;20055;-82
2022/11/01 08:38:26;;;;;;;4.38;1.15;;;14.60;99.90;;;;;;5063958;28;20106;-81
2022/11/01 08:40:53;;;;;;;7.00;1.77;;;14.60;99.90;;;;;;5069045;28;20478;-82
2022/11/01 08:43:20;;;;;;;6.32;1.17;;;14.70;99.90;;;;;;5066117;28;20464;-81
2022/11/01 08:45:46;;;;;;;8.50;1.33;;;14.80;99.90;;;;;;5067388;28;20056;-82
2022/11/01 08:48:14;;;;;;;7.55;1.33;;;14.80;99.90;;;;;;5069489;28;20016;-82
2022/11/01 08:50:40;;;;;;;7.45;1.38;;;14.90;99.90;;;;;;5079350;28;20096;-80
2022/11/01 08:53:12;;;;;;;7.13;1.40;;;15.00;99.90;;;;;;5079975;28;20035;-80
2022/11/01 08:55:40;;;;;;;5.50;1.63;;;15.50;99.90;;;;;;5078858;28;20032;-82
2022/11/01 08:58:07;;;;;;;7.32;1.27;;;16.60;99.90;;;;;;5066123;28;20021;-82
2022/11/01 09:00:34;;;;;;;7.70;1.40;;;17.80;99.90;;;;;;5066149;28;20025;-82
2022/11/01 09:03:00;;;;;;;7.72;1.40;;;18.70;99.90;;;;;;5060780;28;20040;-82
2022/11/01 09:05:30;;;;;;;6.13;1.30;;;19.30;99.90;;;;;;5057504;28;20068;-82
2022/11/01 09:07:58;;;;;;;4.55;1.40;;;19.80;99.90;;;;;;5068384;28;20503;-82
2022/11/01 09:10:25;;;;;;;4.97;1.15;;;20.30;99.90;;;;;;5073755;28;20021;-83
2022/11/01 09:12:52;;;;;;;8.18;1.45;;;20.80;99.90;;;;;;5064488;28;20427;-83
2022/11/01 09:15:20;;;;;;;8.40;1.60;;;21.00;99.90;;;;;;5049905;28;20845;-82
2022/11/01 09:17:48;;;;;;;6.63;1.70;;;21.10;99.90;;;;;;5104235;28;20075;-84
2022/11/01 09:20:16;;;;;;;6.28;1.40;;;21.30;99.90;;;;;;5063115;28;20085;-81
2022/11/01 09:22:42;;;;;;;5.35;1.42;;;21.50;99.90;;;;;;5062483;28;20025;-81
2022/11/01 09:25:11;;;;;;;8.65;1.70;;;21.80;99.90;;;;;;5052780;28;20086;-80
2022/11/01 09:27:37;;;;;;;9.73;1.90;;;21.80;99.90;;;;;;5073082;28;20041;-81
2022/11/01 09:30:09;;;;;;;7.10;1.95;;;21.80;99.90;;;;;;5053450;28;20477;-80
2022/11/01 09:32:36;;;;;;;7.65;2.03;;;21.90;99.90;;;;;;5050304;28;20526;-82
2022/11/01 09:35:02;;;;;;;5.28;1.30;;;22.00;99.90;;;;;;5065838;28;20021;-81
2022/11/01 09:37:29;;;;;;;6.65;1.40;;;22.10;99.90;;;;;;5068146;28;20025;-81
2022/11/01 09:39:56;;;;;;;6.70;1.75;;;22.40;99.90;;;;;;5066560;28;20020;-81
2022/11/01 09:42:31;;;;;;;6.60;1.40;;;22.50;99.90;;;;;;5058757;28;20033;-81
2022/11/01 09:45:02;;;;;;;7.32;1.45;;;22.60;99.90;;;;;;5063059;28;20157;-81
2022/11/01 09:47:35;;;;;;;8.07;1.85;;;22.80;99.90;;;;;;5062965;28;20021;-82
2022/11/01 09:50:28;;;;;;;6.80;1.45;;;22.80;99.90;;;;;;5061180;28;20615;-82
2022/11/01 09:52:59;;;;;;;8.57;1.58;;;22.70;99.90;;;;;;5066024;28;20021;-81
2022/11/01 09:55:56;;;;;;;7.82;1.90;;;22.90;99.90;;;;;;5061539;28;20086;-81
2022/11/01 09:59:01;;;;;;;6.38;1.27;;;23.20;99.90;;;;;;5058681;28;20127;-82
2022/11/01 10:02:04;;;;;;;7.15;1.73;;;23.30;99.90;;;;;;5057341;28;20031;-82
2022/11/01 10:04:52;;;;;;;5.80;1.38;;;23.50;99.90;;;;;;5065421;28;20071;-83
2022/11/01 10:07:21;;;;;;;7.53;1.85;;;23.70;99.90;;;;;;5065820;28;20369;-82
2022/11/01 10:10:06;;;;;;;7.00;1.40;;;23.80;99.90;;;;;;5059038;28;20132;-82
2022/11/01 10:13:00;;;;;;;6.65;1.40;;;23.80;99.90;;;;;;5054444;28;20515;-82
2022/11/01 10:15:50;;;;;;;4.60;1.13;;;24.30;99.90;;;;;;5048642;28;20096;-86
2022/11/01 10:18:53;;;;;;;5.53;1.50;;;24.40;99.90;;;;;;5058857;28;20039;-82
2022/11/01 10:21:22;;;;;;;4.60;1.30;;;24.40;99.90;;;;;;5054892;28;20465;-81
2022/11/01 10:23:51;;;;;;;6.95;1.58;;;24.50;99.90;;;;;;5058662;28;20029;-81
2022/11/01 10:26:24;;;;;;;8.02;1.90;;;24.70;99.90;;;;;;5056669;28;20132;-83
2022/11/01 10:29:14;;;;;;;6.13;1.20;;;24.70;99.80;;;;;;5065733;28;20040;-81
2022/11/01 10:31:45;;;;;;;7.70;1.38;;;24.40;99.60;;;;;;5064588;28;20446;-82
2022/11/01 10:34:32;;;;;;;5.95;1.20;;;24.30;99.30;;;;;;5075581;28;20059;-81
2022/11/01 10:37:20;;;;;;;10.52;1.85;;;24.30;99.80;;;;;;5062349;28;20023;-81
2022/11/01 10:40:12;;;;;;;7.68;1.60;;;24.20;99.60;;;;;;5051723;28;20606;-82
2022/11/01 10:42:38;;;;;;;7.68;2.03;;;24.00;99.20;;;;;;5059581;28;20013;-82
2022/11/01 10:45:13;;;;;;;5.43;1.30;;;24.00;99.80;;;;;;5074725;28;20048;-84
2022/11/01 10:47:42;;;;;;;7.32;1.88;;;24.10;99.90;;;;;;5068027;28;20089;-79
2022/11/01 10:50:17;;;;;;;5.97;1.30;;;24.40;99.90;;;;;;5104984;28;20024;-80
2022/11/01 10:52:48;;;;;;;10.27;1.55;;;24.70;99.40;;;;;;5102141;28;20270;-81
2022/11/01 10:55:37;;;;;;;6.00;1.60;;;24.60;98.90;;;;;;5084332;28;20016;-81
2022/11/01 10:58:12;;;;;;;7.43;1.80;;;24.60;99.10;;;;;;5065281;28;20020;-81
2022/11/01 11:00:41;;;;;;;5.13;1.70;;;24.50;99.20;;;;;;5069039;28;20391;-82
2022/11/01 11:03:18;;;;;;;6.45;1.23;;;24.70;99.30;;;;;;5072339;28;20032;-82
2022/11/01 11:05:59;;;;;;;5.25;1.23;;;25.20;99.80;;;;;;5063834;28;20028;-83
2022/11/01 11:08:27;;;;;;;7.22;1.30;;;25.50;99.10;;;;;;5062070;28;20020;-81
2022/11/01 11:10:58;;;;;;;7.25;1.58;;;25.50;99.40;;;;;;5064682;28;20025;-82
2022/11/01 11:13:25;;;;;;;8.13;2.10;;;25.60;98.60;;;;;;5043692;28;20040;-81
2022/11/01 11:16:01;;;;;;;5.32;1.35;;;25.40;98.70;;;;;;5068385;28;20112;-81
2022/11/01 11:18:29;;;;;;;6.22;1.63;;;25.60;99.20;;;;;;5050691;28;20036;-81
2022/11/01 11:20:59;;;;;;;6.50;1.55;;;26.00;98.40;;;;;;5062968;28;20032;-81
2022/11/01 11:23:29;;;;;;;4.88;1.50;;;26.00;98.10;;;;;;5064402;28;20016;-81
2022/11/01 11:26:04;;;;;;;8.10;1.55;;;25.90;98.30;;;;;;5089703;28;20036;-82
2022/11/01 11:28:33;;;;;;;5.55;1.40;;;26.20;98.40;;;;;;5052760;28;20503;-81
2022/11/01 11:31:30;;;;;;;7.78;1.45;;;26.10;98.30;;;;;;5076209;28;20028;-83
2022/11/01 11:34:01;;;;;;;6.32;1.40;;;26.20;98.20;;;;;;5058842;28;20097;-83
2022/11/01 11:36:35;;;;;;;6.78;1.58;;;26.00;97.80;;;;;;5076780;28;20028;-82
2022/11/01 11:39:22;;;;;;;5.50;1.38;;;25.90;97.80;;;;;;5053191;28;20384;-82
2022/11/01 11:41:49;;;;;;;6.53;1.30;;;26.30;98.30;;;;;;5057188;28;20126;-83
2022/11/01 11:44:54;;;;;;;5.95;1.58;;;26.60;98.60;;;;;;5066611;28;20442;-82
2022/11/01 11:47:23;;;;;;;5.35;1.30;;;26.50;97.10;;;;;;4981240;28;20026;-83
2022/11/01 11:49:52;;;;;;;6.07;1.25;;;26.20;97.20;;;;;;4969441;28;20060;-81
2022/11/01 11:52:22;;;;;;;4.07;1.40;;;26.10;97.80;;;;;;4985167;28;20058;-82
2022/11/01 11:54:49;;;;;;;4.75;1.10;;;25.90;97.20;;;;;;5010338;28;20043;-81
2022/11/01 11:57:24;;;;;;;5.88;1.30;;;26.00;98.00;;;;;;5068196;28;20020;-83
2022/11/01 12:00:04;;;;;;;5.60;1.33;;;26.20;98.10;;;;;;5061185;28;20023;-82
2022/11/01 12:02:46;;;;;;;6.68;1.30;;;26.10;97.90;;;;;;5060429;28;20032;-83
2022/11/01 12:05:22;;;;;;;5.63;1.30;;;26.10;98.10;;;;;;5063611;28;20040;-83
2022/11/01 12:07:53;;;;;;;5.25;1.30;;;26.10;98.30;;;;;;5056076;28;20077;-82
2022/11/01 12:10:45;;;;;;;5.18;1.40;;;26.40;98.40;;;;;;5057757;28;20028;-83
2022/11/01 12:13:59;;;;;;;3.08;0.85;;;26.40;98.20;;;;;;5059907;28;20031;-84
2022/11/01 12:17:19;;;;;;;3.55;1.10;;;26.60;98.40;;;;;;5068264;28;20554;-83
2022/11/01 12:19:45;;;;;;;5.32;1.23;;;26.70;98.30;;;;;;5055938;28;20486;-84
2022/11/01 12:22:13;;;;;;;5.70;1.30;;;26.50;97.70;;;;;;5068751;28;20519;-83
2022/11/01 12:24:52;;;;;;;4.20;1.10;;;26.10;97.00;;;;;;5082386;28;20057;-84
2022/11/01 12:27:23;;;;;;;3.85;1.10;;;25.90;97.80;;;;;;5068382;28;20040;-85
2022/11/01 12:30:10;;;;;;;;;;;;;;;;;;;;;
2022/11/01 12:33:07;;;;;;;6.07;1.48;;;26.10;97.50;;;;;;5074182;28;20031;-82
2022/11/01 12:35:42;;;;;;;3.30;0.98;;;25.80;97.70;;;;;;5063972;28;20032;-82
2022/11/01 12:38:55;;;;;;;5.63;1.35;;;26.10;98.30;;;;;;5059390;28;20020;-82
2022/11/01 12:41:34;;;;;;;3.53;0.90;;;26.40;98.10;;;;;;5059312;28;20044;-81
2022/11/01 12:44:19;;;;;;;4.18;1.10;;;26.00;98.20;;;;;;5081073;28;20032;-83
2022/11/01 12:46:54;;;;;;;3.92;1.13;;;25.80;98.70;;;;;;5059327;28;20037;-82
2022/11/01 12:49:45;;;;;;;6.47;1.20;;;25.70;98.70;;;;;;5073029;28;20078;-81
2022/11/01 12:52:41;;;;;;;5.13;1.00;;;25.20;98.60;;;;;;5078264;28;20100;-80
2022/11/01 12:55:31;;;;;;;4.53;1.02;;;25.00;99.60;;;;;;5079448;28;20035;-81
2022/11/01 12:57:58;;;;;;;2.80;0.93;;;24.50;99.30;;;;;;5083587;28;20274;-82
2022/11/01 13:00:29;;;;;;;5.47;1.20;;;24.30;99.90;;;;;;5067729;28;20040;-81
2022/11/01 13:03:32;;;;;;;4.32;1.35;;;24.10;99.90;;;;;;5072805;28;20409;-82
2022/11/01 13:06:04;;;;;;;;;;;24.00;99.90;;;;;;5061864;28;20388;-82
2022/11/01 13:08:40;;;;;;;5.88;1.52;;;24.00;99.90;;;;;;5063070;28;19912;-81
2022/11/01 13:11:29;;;;;;;4.45;1.13;;;24.20;99.90;;;;;;5063735;28;20080;-81
2022/11/01 13:14:13;;;;;;;4.03;1.13;;;24.00;99.90;;;;;;5053384;28;20043;-80
2022/11/01 13:16:47;;;;;;;3.83;0.82;;;24.10;99.90;;;;;;5056853;28;20032;-82
2022/11/01 13:19:22;;;;;;;4.30;0.98;;;24.50;99.90;;;;;;5060971;28;20199;-81
2022/11/01 13:21:57;;;;;;;4.10;1.00;;;24.20;99.90;;;;;;5057400;28;20128;-81
2022/11/01 13:24:35;;;;;;;3.13;0.90;;;24.40;99.90;;;;;;5067100;28;20464;-82
2022/11/01 13:27:23;;;;;;;4.38;1.10;;;24.50;99.90;;;;;;5079871;28;20052;-81
2022/11/01 13:30:03;;;;;;;2.78;0.93;;;24.80;99.90;;;;;;5048589;28;20020;-81